Aberdare, United Kingdom
Current Conditions -  °F | °C
As of 4:50 AM on Sunday 26 Oct 2014 (Local Time) from EGDX Reporting Station
Overcast Overcast  
Wind Chill: 13°   Ceiling: 2700
Heat Index: 13°   Visibility: 6mi
Dew Point:   Wind: 17mph
Humidity: 77%   Direction: 230°SW
Pressure: 30.09"   Gusts: NA
Location:  51.71°N, 3.45°W
Report Text: EGDX 260350Z AUTO 23015KT 9999 OVC027/// 13/09 Q1019
Loading
Personal Weather Stations






























Interactive Weather Map
Tropical Storm Tracking
New forecast layout! Learn more

10-Day Weather Forecast

Advertisements
Track Severe Weather on mobile